Time;durP1;ratioP1;P1;durP2;ratioP2;P2;SDS_P1;SDS_P2;PMS_P1;PMS_P2;Temp;Humidity;BMP_temperature;BMP_pressure;BME280_temperature;BME280_humidity;BME280_pressure;Samples;Min_cycle;Max_cycle;Signal;HPM_P1;HPM_P2
2021/12/21 16:14:06;;;;;;;23.43;13.53;;;;;;;-142.75;100.00;79561.53;5063274;27;20365;-66
2021/12/21 16:16:32;;;;;;;28.90;15.00;;;;;;;-142.75;100.00;79561.53;5063337;27;20024;-66
2021/12/21 16:19:00;;;;;;;27.33;12.38;;;;;;;-142.75;100.00;79547.72;5062733;27;20035;-67
2021/12/21 16:21:26;;;;;;;26.33;13.53;;;;;;;-142.75;100.00;79547.72;5061233;27;20124;-67
2021/12/21 16:23:52;;;;;;;27.80;14.30;;;;;;;-142.75;100.00;79537.88;5062768;27;20025;-64
2021/12/21 16:26:17;;;;;;;26.63;12.30;;;;;;;-142.75;100.00;79531.97;5062085;27;20024;-66
2021/12/21 16:28:42;;;;;;;28.92;14.88;;;;;;;-142.75;100.00;58249.25;5062591;27;20545;-65
2021/12/21 16:31:07;;;;;;;27.85;14.13;;;;;;;-142.75;100.00;58249.25;5142427;27;20026;-65
2021/12/21 16:33:33;;;;;;;30.42;13.65;;;;;;;-142.75;100.00;58249.25;5148146;27;20041;-65
2021/12/21 16:35:58;;;;;;;28.70;13.23;;;;;;;-142.75;100.00;58249.25;5147445;27;20503;-65
2021/12/21 16:38:24;;;;;;;23.38;12.63;;;;;;;-142.75;100.00;58249.25;5147846;27;20034;-65
2021/12/21 16:40:51;;;;;;;22.48;12.10;;;;;;;-142.75;100.00;58249.25;5146915;27;20050;-65
2021/12/21 16:43:19;;;;;;;23.70;12.17;;;;;;;-142.75;100.00;58249.25;5146458;27;20049;-64
2021/12/21 16:45:45;;;;;;;22.80;12.40;;;;;;;-142.75;100.00;58249.25;5147657;27;20368;-65
2021/12/21 16:48:11;;;;;;;;;;;;;;;-142.75;100.00;58249.25;5146400;27;20090;-65
2021/12/21 16:50:37;;;;;;;26.80;12.77;;;;;;;-142.75;100.00;58249.25;5145775;27;19912;-64
2021/12/21 16:53:03;;;;;;;23.52;13.18;;;;;;;-142.75;100.00;58249.25;5095805;27;20077;-64
2021/12/21 16:55:28;;;;;;;30.13;13.88;;;;;;;-142.75;100.00;58249.25;5061942;27;20037;-64
2021/12/21 16:57:54;;;;;;;31.10;15.98;;;;;;;-142.75;100.00;58249.25;5061499;27;20036;-64
2021/12/21 17:00:22;;;;;;;27.85;14.60;;;;;;;-142.75;100.00;58249.25;5061039;27;20379;-64
2021/12/21 17:02:47;;;;;;;28.13;13.63;;;;;;;-142.75;100.00;58249.25;5061376;27;20154;-65
2021/12/21 17:05:14;;;;;;;25.38;13.57;;;;;;;-142.75;100.00;58249.25;5060335;27;20116;-64
2021/12/21 17:07:40;;;;;;;24.37;13.90;;;;;;;-142.75;100.00;58249.25;5061309;27;20021;-64
2021/12/21 17:10:06;;;;;;;24.95;14.20;;;;;;;-142.75;100.00;58249.25;5060591;27;20032;-64
2021/12/21 17:12:33;;;;;;;25.90;13.77;;;;;;;-142.75;100.00;58249.25;5061611;27;20073;-64
2021/12/21 17:14:59;;;;;;;29.83;14.87;;;;;;;-142.75;100.00;58249.25;5060754;27;20502;-64
2021/12/21 17:17:25;;;;;;;31.65;14.15;;;;;;;-142.75;100.00;58249.25;5061681;27;20033;-65
2021/12/21 17:19:50;;;;;;;31.58;15.73;;;;;;;-142.75;100.00;58249.25;5059317;27;20116;-65
2021/12/21 17:22:16;;;;;;;27.58;14.98;;;;;;;-142.75;100.00;58249.25;5059952;27;20505;-64
2021/12/21 17:24:41;;;;;;;27.85;14.18;;;;;;;-142.75;100.00;58249.25;5052037;27;20040;-64
2021/12/21 17:27:07;;;;;;;31.52;15.98;;;;;;;-142.75;100.00;58249.25;5047901;28;20024;-63
2021/12/21 17:29:32;;;;;;;26.40;14.82;;;;;;;-142.75;100.00;58249.25;5047985;28;20068;-64
2021/12/21 17:31:57;;;;;;;37.15;14.73;;;;;;;-142.75;100.00;58249.25;5046518;28;20546;-64
2021/12/21 17:34:23;;;;;;;28.33;15.10;;;;;;;-142.75;100.00;58249.25;5048077;28;20029;-65
2021/12/21 17:36:50;;;;;;;30.85;15.18;;;;;;;-142.75;100.00;58249.25;5046436;28;20040;-65
2021/12/21 17:39:16;;;;;;;24.17;13.93;;;;;;;-142.75;100.00;58249.25;5047634;28;20097;-64
2021/12/21 17:41:41;;;;;;;25.33;14.55;;;;;;;-142.75;100.00;58249.25;5046713;28;20410;-64
2021/12/21 17:44:06;;;;;;;32.90;15.33;;;;;;;-142.75;100.00;58249.25;5047473;28;20534;-64
2021/12/21 17:46:32;;;;;;;27.98;14.18;;;;;;;-142.75;100.00;58249.25;5046863;28;20267;-64
2021/12/21 17:48:57;;;;;;;29.98;14.27;;;;;;;-142.75;100.00;58249.25;5047108;28;20041;-64
2021/12/21 17:51:23;;;;;;;25.25;13.95;;;;;;;-142.75;100.00;79531.97;5045486;28;20029;-64
2021/12/21 17:53:48;;;;;;;31.63;13.30;;;;;;;-142.75;100.00;58249.25;5047197;28;20021;-64
2021/12/21 17:56:14;;;;;;;21.15;13.13;;;;;;;-142.75;100.00;58249.25;5045932;28;20040;-64
2021/12/21 17:58:39;;;;;;;26.13;14.50;;;;;;;-142.75;100.00;58249.25;5045931;28;20117;-65
2021/12/21 18:01:05;;;;;;;25.37;13.13;;;;;;;-142.75;100.00;58249.25;5046594;28;20138;-65
2021/12/21 18:03:30;;;;;;;25.27;15.48;;;;;;;-142.75;100.00;58249.25;5046096;28;20279;-65
2021/12/21 18:05:56;;;;;;;27.65;14.45;;;;;;;-142.75;100.00;58249.25;5047035;28;20097;-65
2021/12/21 18:08:21;;;;;;;26.60;14.57;;;;;;;-142.75;100.00;58249.25;5047212;28;20053;-65
2021/12/21 18:10:51;;;;;;;28.13;14.25;;;;;;;-142.75;100.00;58249.25;5046220;28;20049;-65
2021/12/21 18:13:16;;;;;;;27.63;13.73;;;;;;;-142.75;100.00;58249.25;5045791;28;20025;-64
2021/12/21 18:15:42;;;;;;;25.42;13.18;;;;;;;-142.75;100.00;58249.25;5046822;28;20488;-65
2021/12/21 18:18:07;;;;;;;27.38;15.23;;;;;;;-142.75;100.00;58249.25;5045722;27;20029;-64
2021/12/21 18:20:33;;;;;;;33.17;16.90;;;;;;;-142.75;100.00;58249.25;5046621;28;20016;-65
2021/12/21 18:23:01;;;;;;;29.25;15.82;;;;;;;-142.75;100.00;58249.25;5046354;28;20036;-65
2021/12/21 18:25:27;;;;;;;33.03;16.57;;;;;;;-142.75;100.00;58249.25;5046127;28;20056;-64
2021/12/21 18:27:53;;;;;;;34.90;16.38;;;;;;;-142.75;100.00;58249.25;5046691;28;20475;-65
2021/12/21 18:30:18;;;;;;;28.85;16.73;;;;;;;-142.75;100.00;58249.25;5044937;28;20033;-64
2021/12/21 18:32:44;;;;;;;32.00;16.42;;;;;;;-142.75;100.00;58249.25;5046690;28;20500;-64
2021/12/21 18:35:10;;;;;;;29.45;16.52;;;;;;;-142.75;100.00;58249.25;5046282;28;20028;-66
2021/12/21 18:37:42;;;;;;;;;;;;;;;-142.75;100.00;58249.25;5046373;28;20078;-63
2021/12/21 18:40:12;;;;;;;26.57;15.27;;;;;;;-142.75;100.00;58249.25;5046018;28;19976;-65
2021/12/21 18:42:37;;;;;;;30.07;15.77;;;;;;;-142.75;100.00;58249.25;5045376;28;20017;-64
2021/12/21 18:45:03;;;;;;;27.52;16.85;;;;;;;-142.75;100.00;58249.25;5045241;28;20021;-64
2021/12/21 18:47:28;;;;;;;31.15;15.93;;;;;;;-142.75;100.00;58249.25;5047021;27;20064;-64
2021/12/21 18:49:54;;;;;;;30.35;16.35;;;;;;;-142.75;100.00;58249.25;5045534;28;20117;-64
2021/12/21 18:52:19;;;;;;;29.55;15.32;;;;;;;-142.75;100.00;58249.25;5046589;28;20021;-65
2021/12/21 18:54:44;;;;;;;26.67;15.70;;;;;;;-142.75;100.00;58249.25;5045043;28;20025;-65
2021/12/21 18:57:10;;;;;;;28.30;15.83;;;;;;;-142.75;100.00;58249.25;5046560;28;20784;-67
2021/12/21 18:59:35;;;;;;;30.15;16.25;;;;;;;-142.75;100.00;58249.25;5045132;27;20312;-65
2021/12/21 19:02:01;;;;;;;27.38;16.13;;;;;;;-142.75;100.00;58249.25;5045546;28;20028;-65
2021/12/21 19:04:26;;;;;;;27.90;15.95;;;;;;;-142.75;100.00;58249.25;5046756;28;20052;-65
2021/12/21 19:06:52;;;;;;;28.55;15.15;;;;;;;-142.75;100.00;58249.25;5045764;28;20107;-63
2021/12/21 19:09:18;;;;;;;25.00;15.10;;;;;;;-142.75;100.00;58249.25;5045415;28;20031;-64
2021/12/21 19:11:43;;;;;;;25.35;15.48;;;;;;;-142.75;100.00;58249.25;5045261;28;20021;-65
2021/12/21 19:14:09;;;;;;;38.13;19.30;;;;;;;-142.75;100.00;58249.25;5112189;27;20026;-64
2021/12/21 19:16:34;;;;;;;31.48;18.30;;;;;;;-142.75;100.00;58249.25;5130487;27;20051;-65
2021/12/21 19:19:00;;;;;;;31.13;19.48;;;;;;;-142.75;100.00;58249.25;5122974;27;20054;-66
2021/12/21 19:21:26;;;;;;;34.95;22.67;;;;;;;-142.75;100.00;58249.25;5129222;27;20023;-65
2021/12/21 19:23:52;;;;;;;39.60;24.35;;;;;;;-142.75;100.00;58249.25;5129721;27;20719;-63
2021/12/21 19:26:18;;;;;;;41.42;22.90;;;;;;;-142.75;100.00;58249.25;5129075;27;20029;-65
2021/12/21 19:28:43;;;;;;;39.05;23.73;;;;;;;-142.75;100.00;58249.25;5128205;27;20027;-66
2021/12/21 19:31:08;;;;;;;33.25;20.02;;;;;;;-142.75;100.00;58249.25;5127839;27;20511;-65
2021/12/21 19:33:35;;;;;;;28.58;17.65;;;;;;;-142.75;100.00;58249.25;5129459;27;20019;-65
2021/12/21 19:36:02;;;;;;;;;;;;;;;-142.75;100.00;58249.25;5130098;27;20035;-66
2021/12/21 19:38:28;;;;;;;47.37;25.37;;;;;;;-142.75;100.00;58249.25;5122049;27;19991;-65
2021/12/21 19:40:53;;;;;;;61.25;32.08;;;;;;;-142.75;100.00;58249.25;5044749;28;20052;-64
2021/12/21 19:43:19;;;;;;;48.50;27.00;;;;;;;-142.75;100.00;58249.25;5045854;28;20036;-65
2021/12/21 19:45:45;;;;;;;45.65;25.55;;;;;;;-142.75;100.00;58249.25;5044608;28;20028;-65
2021/12/21 19:48:11;;;;;;;28.55;15.57;;;;;;;-142.75;100.00;58249.25;5043860;27;20021;-65
2021/12/21 19:50:38;;;;;;;47.67;26.08;;;;;;;-142.75;100.00;58249.25;5044944;28;20024;-64
2021/12/21 19:53:03;;;;;;;25.20;16.37;;;;;;;-142.75;100.00;58249.25;5045201;28;20028;-64
2021/12/21 19:55:29;;;;;;;33.38;19.40;;;;;;;-142.75;100.00;58249.25;5045905;28;20029;-63
2021/12/21 19:57:57;;;;;;;33.90;18.40;;;;;;;-142.75;100.00;58249.25;5086025;27;20031;-64
2021/12/21 20:00:25;;;;;;;31.17;18.00;;;;;;;-142.75;100.00;58249.25;5099444;27;20023;-63
2021/12/21 20:02:50;;;;;;;28.43;15.83;;;;;;;-142.75;100.00;58249.25;5044394;28;20025;-65
2021/12/21 20:05:16;;;;;;;28.92;17.77;;;;;;;-142.75;100.00;58249.25;5044540;28;20520;-64
2021/12/21 20:07:41;;;;;;;26.23;15.98;;;;;;;-142.75;100.00;58249.25;5045200;28;20029;-65
2021/12/21 20:10:10;;;;;;;25.27;15.77;;;;;;;-142.75;100.00;58249.25;5044684;28;20029;-65
2021/12/21 20:12:37;;;;;;;24.80;15.03;;;;;;;-142.75;100.00;58249.25;5043802;28;20417;-64
2021/12/21 20:15:04;;;;;;;28.10;16.00;;;;;;;-142.75;100.00;58249.25;5045054;28;20483;-64
2021/12/21 20:17:30;;;;;;;24.70;15.77;;;;;;;-142.75;100.00;58249.25;5074868;28;20028;-65
2021/12/21 20:19:56;;;;;;;23.67;13.20;;;;;;;-142.75;100.00;58249.25;5056437;28;20023;-65
2021/12/21 20:22:22;;;;;;;22.90;13.95;;;;;;;-142.75;100.00;58249.25;5118249;28;20019;-65
2021/12/21 20:24:49;;;;;;;19.85;11.57;;;;;;;-142.75;100.00;58249.25;5043920;28;20025;-65
2021/12/21 20:27:16;;;;;;;24.70;14.47;;;;;;;-142.75;100.00;58249.25;5096733;28;20102;-65
2021/12/21 20:29:42;;;;;;;29.50;16.30;;;;;;;-142.75;100.00;58249.25;5062151;28;20021;-64
2021/12/21 20:32:07;;;;;;;29.90;16.55;;;;;;;-142.75;100.00;58249.25;5067532;28;20023;-65
2021/12/21 20:34:33;;;;;;;32.20;18.70;;;;;;;-142.75;100.00;58249.25;5098845;27;20064;-64
2021/12/21 20:37:06;;;;;;;34.07;19.50;;;;;;;-142.75;100.00;58249.25;5044774;28;20033;-65
2021/12/21 20:39:31;;;;;;;31.70;18.90;;;;;;;-142.75;100.00;58249.25;5091862;28;20484;-65
2021/12/21 20:41:57;;;;;;;37.38;20.70;;;;;;;-142.75;100.00;58249.25;5127806;27;20031;-65
2021/12/21 20:44:23;;;;;;;46.60;22.08;;;;;;;-142.75;100.00;58249.25;5066141;27;20048;-66
2021/12/21 20:46:48;;;;;;;42.15;22.65;;;;;;;-142.75;100.00;58249.25;5103856;28;20031;-65
2021/12/21 20:49:14;;;;;;;36.20;21.45;;;;;;;-142.75;100.00;58249.25;5129235;27;20019;-65
2021/12/21 20:51:40;;;;;;;31.70;19.63;;;;;;;-142.75;100.00;58249.25;5126859;28;20034;-65
2021/12/21 20:54:05;;;;;;;35.10;19.10;;;;;;;-142.75;100.00;58249.25;5111546;27;20022;-65
2021/12/21 20:56:32;;;;;;;36.55;19.83;;;;;;;-142.75;100.00;58249.25;5123162;27;20031;-65
2021/12/21 20:58:59;;;;;;;38.10;20.53;;;;;;;-142.75;100.00;58249.25;5076533;27;20400;-65
2021/12/21 21:01:24;;;;;;;36.13;19.00;;;;;;;-142.75;100.00;58249.25;5130966;27;20019;-65
2021/12/21 21:03:50;;;;;;;36.85;19.85;;;;;;;-142.75;100.00;58249.25;5087744;27;20024;-65
2021/12/21 21:06:15;;;;;;;37.08;20.13;;;;;;;-142.75;100.00;58249.25;5101329;27;20023;-65
2021/12/21 21:08:41;;;;;;;39.03;20.92;;;;;;;-142.75;100.00;58249.25;5132589;27;20507;-65
2021/12/21 21:11:09;;;;;;;38.92;22.45;;;;;;;-142.75;100.00;58249.25;5131873;27;20488;-64
2021/12/21 21:13:34;;;;;;;47.73;23.50;;;;;;;-142.75;100.00;58249.25;5127424;27;20026;-65
2021/12/21 21:16:00;;;;;;;40.17;21.55;;;;;;;-142.75;100.00;58249.25;5130930;27;20031;-65
2021/12/21 21:18:26;;;;;;;19.60;12.27;;;;;;;-142.75;100.00;58249.25;5132902;27;20023;-65
2021/12/21 21:20:51;;;;;;;21.63;13.60;;;;;;;-142.75;100.00;58249.25;5131291;27;20023;-64
2021/12/21 21:23:18;;;;;;;22.92;13.40;;;;;;;-142.75;100.00;58249.25;5131357;27;20412;-65
2021/12/21 21:25:44;;;;;;;52.73;30.20;;;;;;;-142.75;100.00;58249.25;5128867;27;20450;-65
2021/12/21 21:28:09;;;;;;;49.15;26.13;;;;;;;-142.75;100.00;58249.25;5095415;27;20035;-66
2021/12/21 21:30:34;;;;;;;33.05;20.08;;;;;;;-142.75;100.00;58249.25;5094918;27;20054;-65
2021/12/21 21:33:00;;;;;;;30.48;18.90;;;;;;;-142.75;100.00;58249.25;5108392;27;20064;-66
2021/12/21 21:35:26;;;;;;;38.90;19.60;;;;;;;-142.75;100.00;58249.25;5132141;27;20027;-65
2021/12/21 21:37:51;;;;;;;34.08;20.63;;;;;;;-142.75;100.00;58249.25;5115254;27;20075;-66
2021/12/21 21:40:17;;;;;;;37.15;20.05;;;;;;;-142.75;100.00;58249.25;5111080;27;20029;-65
2021/12/21 21:42:42;;;;;;;;;;;;;;;-142.75;100.00;58249.25;5128053;27;20048;-65
2021/12/21 21:45:13;;;;;;;39.47;20.57;;;;;;;-142.75;100.00;58249.25;5130629;27;19916;-65
2021/12/21 21:47:38;;;;;;;37.20;20.70;;;;;;;-142.75;100.00;58249.25;5119567;27;20093;-64
2021/12/21 21:50:06;;;;;;;37.42;20.58;;;;;;;-142.75;100.00;58249.25;5110512;27;20039;-65
2021/12/21 21:52:32;;;;;;;34.83;19.80;;;;;;;-142.75;100.00;58249.25;5106829;27;20019;-65
2021/12/21 21:54:58;;;;;;;35.72;20.52;;;;;;;-142.75;100.00;58249.25;5118868;27;20058;-65
2021/12/21 21:57:23;;;;;;;37.22;20.70;;;;;;;-142.75;100.00;58249.25;5131853;27;20047;-65
2021/12/21 21:59:49;;;;;;;38.90;20.30;;;;;;;-142.75;100.00;58249.25;5130911;27;20022;-64
2021/12/21 22:02:14;;;;;;;31.38;20.58;;;;;;;-142.75;100.00;58249.25;5114126;27;20079;-65
2021/12/21 22:04:39;;;;;;;32.08;20.13;;;;;;;-142.75;100.00;58249.25;5128593;27;20030;-66
2021/12/21 22:07:05;;;;;;;38.05;20.63;;;;;;;-142.75;100.00;58249.25;5131328;27;20034;-65
2021/12/21 22:09:30;;;;;;;41.42;22.48;;;;;;;-142.75;100.00;58249.25;5130161;27;20027;-65
2021/12/21 22:11:57;;;;;;;35.55;20.73;;;;;;;-142.75;100.00;58249.25;5073993;27;20062;-65
2021/12/21 22:14:23;;;;;;;35.40;20.90;;;;;;;-142.75;100.00;58249.25;5120100;27;20071;-64
2021/12/21 22:16:48;;;;;;;37.75;21.63;;;;;;;-142.75;100.00;58249.25;5131047;27;20629;-65
2021/12/21 22:19:14;;;;;;;28.63;18.45;;;;;;;-142.75;100.00;58249.25;5131122;27;20019;-64
2021/12/21 22:21:39;;;;;;;34.08;20.25;;;;;;;-142.75;100.00;58249.25;5128848;27;20075;-66
2021/12/21 22:24:05;;;;;;;35.17;19.27;;;;;;;-142.75;100.00;58249.25;5129666;27;20027;-64
2021/12/21 22:26:31;;;;;;;36.42;19.80;;;;;;;-142.75;100.00;58249.25;5129810;27;20035;-66
2021/12/21 22:28:56;;;;;;;33.55;20.10;;;;;;;-142.75;100.00;58249.25;5123809;27;20104;-65
2021/12/21 22:31:27;;;;;;;33.65;18.40;;;;;;;-142.75;100.00;58249.25;5130442;27;20030;-65
2021/12/21 22:33:55;;;;;;;39.47;20.00;;;;;;;-142.75;100.00;58249.25;5044420;28;20029;-65
2021/12/21 22:36:21;;;;;;;37.03;20.50;;;;;;;-142.75;100.00;58249.25;5046825;28;20044;-66
2021/12/21 22:38:49;;;;;;;32.15;18.83;;;;;;;-142.75;100.00;58249.25;5045218;27;20165;-65
2021/12/21 22:41:17;;;;;;;37.23;19.93;;;;;;;-142.75;100.00;58249.25;5045988;28;20056;-64
2021/12/21 22:43:44;;;;;;;42.03;19.90;;;;;;;-142.75;100.00;58249.25;5045185;28;20009;-65
2021/12/21 22:46:10;;;;;;;34.67;20.63;;;;;;;-142.75;100.00;58249.25;5046532;28;20029;-65
2021/12/21 22:48:35;;;;;;;;;;;;;;;-142.75;100.00;58249.25;5047234;28;20021;-64
2021/12/21 22:51:03;;;;;;;36.70;18.33;;;;;;;-142.75;100.00;58249.25;5044439;27;20396;-65
2021/12/21 22:53:29;;;;;;;37.27;18.77;;;;;;;-142.75;100.00;58249.25;5047516;28;20021;-64
2021/12/21 22:55:54;;;;;;;30.70;18.17;;;;;;;-142.75;100.00;58249.25;5045657;28;20413;-65
2021/12/21 22:58:20;;;;;;;43.83;22.33;;;;;;;-142.75;100.00;58249.25;5047658;28;20032;-65
2021/12/21 23:00:55;;;;;;;39.63;20.57;;;;;;;-142.75;100.00;58249.25;5045447;28;20074;-68
2021/12/21 23:03:21;;;;;;;28.53;17.43;;;;;;;-142.75;100.00;58249.25;5047496;28;20275;-65
2021/12/21 23:05:47;;;;;;;;;;;;;;;-142.75;100.00;58249.25;5047679;28;20032;-65
2021/12/21 23:08:13;;;;;;;28.23;16.97;;;;;;;-142.75;100.00;58249.25;5045754;28;19913;-64
2021/12/21 23:10:40;;;;;;;35.55;18.30;;;;;;;-142.75;100.00;58249.25;5046401;28;20048;-64
2021/12/21 23:13:06;;;;;;;36.23;19.50;;;;;;;-142.75;100.00;58249.25;5045589;28;20386;-63
2021/12/21 23:15:33;;;;;;;;;;;;;;;-142.75;100.00;58249.25;5046510;28;20115;-63
2021/12/21 23:18:00;;;;;;;39.72;19.55;;;;;;;-142.75;100.00;58249.25;5046661;28;19920;-64
2021/12/21 23:20:25;;;;;;;33.70;19.03;;;;;;;-142.75;100.00;58249.25;5045156;28;20032;-63
2021/12/21 23:22:50;;;;;;;38.05;19.77;;;;;;;-142.75;100.00;58249.25;5046151;28;20403;-63
2021/12/21 23:25:16;;;;;;;34.97;19.98;;;;;;;-142.75;100.00;58249.25;5045872;28;20375;-65
2021/12/21 23:27:41;;;;;;;40.67;21.40;;;;;;;-142.75;100.00;58249.25;5046836;28;20021;-65
2021/12/21 23:30:08;;;;;;;36.58;20.05;;;;;;;-142.75;100.00;58249.25;5046179;28;20069;-65
2021/12/21 23:32:36;;;;;;;34.08;18.48;;;;;;;-142.75;100.00;58249.25;5045667;28;20060;-65
2021/12/21 23:35:06;;;;;;;33.07;18.43;;;;;;;-142.75;100.00;58249.25;5046329;28;20135;-65
2021/12/21 23:37:32;;;;;;;33.90;17.67;;;;;;;-142.75;100.00;58249.25;5045942;28;20595;-66
